Time;durP1;ratioP1;P1;durP2;ratioP2;P2;SDS_P1;SDS_P2;PMS_P1;PMS_P2;Temp;Humidity;BMP_temperature;BMP_pressure;BME280_temperature;BME280_humidity;BME280_pressure;Samples;Min_cycle;Max_cycle;Signal;HPM_P1;HPM_P2
2021/09/29 00:01:03;;;;;;;3.92;2.35;;;;;19.80;101477.00;;;;5050563;28;20199;-78
2021/09/29 00:03:30;;;;;;;2.50;1.40;;;;;19.80;101475.00;;;;5047445;28;20195;-77
2021/09/29 00:05:57;;;;;;;2.42;1.70;;;;;19.90;101464.00;;;;5048744;28;20203;-77
2021/09/29 00:08:24;;;;;;;2.83;1.73;;;;;19.80;101469.00;;;;5047298;28;20194;-78
2021/09/29 00:10:52;;;;;;;2.53;2.00;;;;;19.80;101457.00;;;;5048576;28;20692;-78
2021/09/29 00:13:23;;;;;;;3.10;1.65;;;;;19.80;101466.00;;;;5067494;28;20222;-77
2021/09/29 00:15:51;;;;;;;3.75;2.38;;;;;19.80;101457.00;;;;5050177;28;20200;-78
2021/09/29 00:18:19;;;;;;;2.70;1.95;;;;;19.80;101454.00;;;;5047989;28;20279;-78
2021/09/29 00:20:46;;;;;;;2.70;1.98;;;;;19.80;101458.00;;;;5048270;28;20210;-78
2021/09/29 00:23:13;;;;;;;4.53;2.08;;;;;19.80;101452.00;;;;5047980;28;20200;-78
2021/09/29 00:25:41;;;;;;;4.45;2.15;;;;;19.80;101446.00;;;;5048128;28;20203;-78
2021/09/29 00:28:08;;;;;;;2.70;1.75;;;;;19.70;101438.00;;;;5065318;28;20223;-78
2021/09/29 00:30:39;;;;;;;5.03;2.42;;;;;19.70;101436.00;;;;5058221;28;20260;-78
2021/09/29 00:33:06;;;;;;;3.47;2.03;;;;;19.70;101423.00;;;;5068950;28;20755;-78
2021/09/29 00:35:34;;;;;;;5.13;2.25;;;;;19.70;101424.00;;;;5057988;28;20195;-78
2021/09/29 00:38:01;;;;;;;2.75;1.90;;;;;19.70;101426.00;;;;5051631;28;20196;-78
2021/09/29 00:40:28;;;;;;;3.28;2.35;;;;;19.70;101414.00;;;;5052715;28;20204;-78
2021/09/29 00:42:56;;;;;;;3.70;2.30;;;;;19.70;101410.00;;;;5050616;28;20239;-78
2021/09/29 00:45:23;;;;;;;2.63;2.00;;;;;19.70;101416.00;;;;5051742;28;20191;-78
2021/09/29 00:47:51;;;;;;;2.38;2.03;;;;;19.60;101406.00;;;;5067554;28;20195;-78
2021/09/29 00:50:19;;;;;;;3.55;2.20;;;;;19.60;101401.00;;;;5071824;28;20206;-78
2021/09/29 00:52:46;;;;;;;2.92;1.75;;;;;19.60;101399.00;;;;5053729;28;20227;-77
2021/09/29 00:55:14;;;;;;;3.25;1.73;;;;;19.60;101401.00;;;;5055285;28;20203;-78
2021/09/29 00:57:42;;;;;;;3.97;1.85;;;;;19.60;101389.00;;;;5068824;28;20198;-78
2021/09/29 01:00:11;;;;;;;4.20;2.17;;;;;19.60;101387.00;;;;5071609;28;20203;-78
2021/09/29 01:02:38;;;;;;;2.75;1.83;;;;;19.60;101385.00;;;;5056601;28;20207;-78
2021/09/29 01:05:08;;;;;;;4.28;2.20;;;;;19.60;101384.00;;;;5054991;28;20195;-78
2021/09/29 01:07:39;;;;;;;4.35;1.80;;;;;19.60;101376.00;;;;5068055;28;20252;-78
2021/09/29 01:10:15;;;;;;;3.67;1.73;;;;;19.50;101368.00;;;;5071561;28;20240;-78
2021/09/29 01:12:47;;;;;;;1.77;1.63;;;;;19.60;101366.00;;;;5054431;28;20274;-78
2021/09/29 01:15:22;;;;;;;3.65;1.80;;;;;19.60;101366.00;;;;5063491;28;20203;-77
2021/09/29 01:17:52;;;;;;;2.95;2.20;;;;;19.60;101358.00;;;;5062561;28;20194;-78
2021/09/29 01:20:27;;;;;;;4.30;2.13;;;;;19.50;101349.00;;;;5062231;28;20274;-77
2021/09/29 01:23:10;;;;;;;5.43;1.98;;;;;19.50;101347.00;;;;5060805;28;20198;-77
2021/09/29 01:25:47;;;;;;;4.20;2.20;;;;;19.50;101347.00;;;;5050502;28;20200;-78
2021/09/29 01:28:19;;;;;;;3.05;1.92;;;;;19.50;101339.00;;;;5069248;28;20290;-77
2021/09/29 01:30:47;;;;;;;3.08;1.95;;;;;19.50;101335.00;;;;5054080;28;20199;-78
2021/09/29 01:33:16;;;;;;;2.53;1.98;;;;;19.50;101335.00;;;;5058975;28;20256;-77
2021/09/29 01:35:44;;;;;;;2.78;2.10;;;;;19.50;101331.00;;;;5064612;28;20200;-78
2021/09/29 01:38:12;;;;;;;5.50;2.42;;;;;19.50;101336.00;;;;5050089;28;20211;-78
2021/09/29 01:40:39;;;;;;;4.05;2.65;;;;;19.50;101327.00;;;;5050746;28;20203;-77
2021/09/29 01:43:06;;;;;;;3.45;2.17;;;;;19.50;101322.00;;;;5050838;28;20216;-77
2021/09/29 01:45:36;;;;;;;3.20;2.30;;;;;19.40;101323.00;;;;5051324;28;20195;-78
2021/09/29 01:48:03;;;;;;;3.42;2.42;;;;;19.50;101315.00;;;;5058806;28;20542;-77
2021/09/29 01:50:32;;;;;;;4.18;2.47;;;;;19.40;101316.00;;;;5068386;28;20209;-78
2021/09/29 01:53:01;;;;;;;3.88;2.33;;;;;19.40;101303.00;;;;5057315;28;20251;-77
2021/09/29 01:55:29;;;;;;;4.35;2.15;;;;;19.40;101300.00;;;;5055727;28;20572;-78
2021/09/29 01:57:57;;;;;;;5.28;2.22;;;;;19.40;101306.00;;;;5051356;28;20207;-78
2021/09/29 02:00:24;;;;;;;3.28;2.03;;;;;19.40;101296.00;;;;5049870;28;20191;-78
2021/09/29 02:02:56;;;;;;;5.63;3.05;;;;;19.40;101288.00;;;;5049244;28;20211;-77
2021/09/29 02:05:34;;;;;;;4.22;2.00;;;;;19.30;101294.00;;;;5049960;28;20579;-77
2021/09/29 02:08:04;;;;;;;4.65;2.13;;;;;19.40;101286.00;;;;5050226;28;20202;-77
2021/09/29 02:10:32;;;;;;;2.55;1.75;;;;;19.40;101273.00;;;;5051880;28;20670;-77
2021/09/29 02:12:59;;;;;;;4.32;2.42;;;;;19.40;101276.00;;;;5053999;28;20225;-78
2021/09/29 02:15:27;;;;;;;3.65;1.80;;;;;19.40;101273.00;;;;5051441;28;20191;-77
2021/09/29 02:17:55;;;;;;;3.42;1.88;;;;;19.40;101274.00;;;;5050985;28;21139;-77
2021/09/29 02:20:23;;;;;;;4.30;2.00;;;;;19.40;101273.00;;;;5053650;28;21294;-78
2021/09/29 02:22:51;;;;;;;2.35;1.77;;;;;19.40;101266.00;;;;5051763;28;20650;-78
2021/09/29 02:25:18;;;;;;;3.22;2.58;;;;;19.40;101267.00;;;;5049912;28;20210;-78
2021/09/29 02:27:45;;;;;;;3.50;1.98;;;;;19.40;101256.00;;;;5049933;28;20692;-78
2021/09/29 02:30:14;;;;;;;2.58;2.05;;;;;19.40;101254.00;;;;5049923;28;20378;-78
2021/09/29 02:32:42;;;;;;;2.65;1.67;;;;;19.40;101245.00;;;;5064483;28;20218;-78
2021/09/29 02:35:12;;;;;;;3.00;2.45;;;;;19.40;101246.00;;;;5049418;28;20196;-77
2021/09/29 02:37:40;;;;;;;3.45;2.08;;;;;19.40;101246.00;;;;5049805;28;20188;-77
2021/09/29 02:40:09;;;;;;;2.60;1.65;;;;;19.40;101232.00;;;;5049908;28;20208;-78
2021/09/29 02:42:36;;;;;;;5.43;2.40;;;;;19.40;101235.00;;;;5052295;28;20224;-78
2021/09/29 02:45:04;;;;;;;4.05;2.15;;;;;19.40;101239.00;;;;5049563;28;20202;-78
2021/09/29 02:47:32;;;;;;;3.05;1.88;;;;;19.40;101232.00;;;;5054621;28;20681;-78
2021/09/29 02:49:59;;;;;;;5.07;2.25;;;;;19.40;101230.00;;;;5057159;28;20427;-78
2021/09/29 02:52:27;;;;;;;2.80;2.15;;;;;19.40;101226.00;;;;5056926;28;20191;-78
2021/09/29 02:54:55;;;;;;;2.95;2.50;;;;;19.40;101233.00;;;;5059520;28;20207;-78
2021/09/29 02:57:22;;;;;;;2.90;1.67;;;;;19.40;101228.00;;;;5062786;28;20195;-78
2021/09/29 02:59:49;;;;;;;3.03;1.90;;;;;19.40;101227.00;;;;5052943;28;20206;-78
2021/09/29 03:02:17;;;;;;;5.45;2.05;;;;;19.40;101219.00;;;;5055784;28;20199;-77
2021/09/29 03:04:44;;;;;;;2.95;1.77;;;;;19.40;101219.00;;;;5049559;28;20196;-78
2021/09/29 03:07:11;;;;;;;5.53;2.10;;;;;19.40;101223.00;;;;5063189;28;20191;-78
2021/09/29 03:09:40;;;;;;;2.30;1.70;;;;;19.40;101216.00;;;;5049033;28;20218;-78
2021/09/29 03:12:08;;;;;;;1.92;1.75;;;;;19.40;101214.00;;;;5058393;28;20202;-78
2021/09/29 03:14:35;;;;;;;3.38;1.45;;;;;19.40;101198.00;;;;5048058;28;20218;-79
2021/09/29 03:17:03;;;;;;;4.20;1.50;;;;;19.40;101197.00;;;;5052197;28;20584;-79
2021/09/29 03:19:31;;;;;;;4.00;2.17;;;;;19.40;101197.00;;;;5048776;28;20457;-79
2021/09/29 03:22:00;;;;;;;3.17;2.08;;;;;19.40;101187.00;;;;5060097;28;20218;-79
2021/09/29 03:24:27;;;;;;;2.63;1.98;;;;;19.40;101185.00;;;;5062545;28;20195;-79
2021/09/29 03:26:56;;;;;;;4.60;2.83;;;;;19.40;101182.00;;;;5050141;28;20241;-79
2021/09/29 03:29:23;;;;;;;4.82;2.30;;;;;19.40;101187.00;;;;5048222;28;20672;-79
2021/09/29 03:31:50;;;;;;;4.28;2.25;;;;;19.40;101181.00;;;;5056394;28;20211;-79
2021/09/29 03:34:18;;;;;;;2.65;1.83;;;;;19.40;101185.00;;;;5061114;28;20220;-78
2021/09/29 03:36:45;;;;;;;2.80;1.60;;;;;19.40;101185.00;;;;5050277;28;20191;-78
2021/09/29 03:39:12;;;;;;;3.28;2.15;;;;;19.40;101178.00;;;;5051140;28;20557;-79
2021/09/29 03:41:39;;;;;;;3.40;1.88;;;;;19.40;101182.00;;;;5050286;28;20231;-79
2021/09/29 03:44:08;;;;;;;3.30;1.90;;;;;19.30;101174.00;;;;5048406;28;20207;-79
2021/09/29 03:46:35;;;;;;;3.75;1.98;;;;;19.30;101173.00;;;;5046626;28;20188;-79
2021/09/29 03:49:03;;;;;;;3.38;2.08;;;;;19.30;101176.00;;;;5048072;28;20203;-79
2021/09/29 03:51:30;;;;;;;2.58;2.20;;;;;19.30;101172.00;;;;5048043;28;20669;-79
2021/09/29 03:53:58;;;;;;;2.58;2.00;;;;;19.30;101175.00;;;;5045065;28;20234;-79
2021/09/29 03:56:26;;;;;;;2.88;1.92;;;;;19.30;101177.00;;;;5055507;28;20196;-79
2021/09/29 03:58:53;;;;;;;3.08;1.92;;;;;19.30;101176.00;;;;5048330;28;20203;-79
2021/09/29 04:01:21;;;;;;;2.63;1.90;;;;;19.30;101169.00;;;;5051469;28;20192;-79
2021/09/29 04:03:48;;;;;;;4.78;2.17;;;;;19.20;101160.00;;;;5051867;28;20283;-78
2021/09/29 04:06:16;;;;;;;3.08;1.65;;;;;19.20;101163.00;;;;5066123;28;20458;-78
2021/09/29 04:08:43;;;;;;;5.57;1.95;;;;;19.20;101164.00;;;;5052527;28;20673;-78
2021/09/29 04:11:11;;;;;;;3.15;2.03;;;;;19.20;101161.00;;;;5053680;28;20191;-78
2021/09/29 04:13:38;;;;;;;4.80;1.73;;;;;19.20;101155.00;;;;5068782;28;20227;-78
2021/09/29 04:16:06;;;;;;;2.03;1.65;;;;;19.20;101154.00;;;;5058777;28;20954;-78
2021/09/29 04:18:35;;;;;;;2.95;1.98;;;;;19.20;101152.00;;;;5052615;28;20191;-78
2021/09/29 04:21:03;;;;;;;2.80;1.70;;;;;19.20;101156.00;;;;5051959;28;20206;-78
2021/09/29 04:23:35;;;;;;;4.57;1.70;;;;;19.20;101163.00;;;;5052538;28;20195;-79
2021/09/29 04:26:03;;;;;;;3.00;1.63;;;;;19.20;101156.00;;;;5052350;28;20714;-78
2021/09/29 04:28:31;;;;;;;2.90;1.70;;;;;19.20;101161.00;;;;5052497;28;20192;-79
2021/09/29 04:30:58;;;;;;;4.68;1.52;;;;;19.20;101159.00;;;;5055628;28;20195;-78
2021/09/29 04:33:26;;;;;;;3.47;2.05;;;;;19.10;101153.00;;;;5054627;28;20258;-79
2021/09/29 04:35:55;;;;;;;1.80;1.70;;;;;19.10;101155.00;;;;5063163;28;20199;-78
2021/09/29 04:38:22;;;;;;;2.80;1.30;;;;;19.10;101138.00;;;;5068954;28;20198;-78
2021/09/29 04:40:50;;;;;;;2.65;1.70;;;;;19.10;101142.00;;;;5069286;28;20203;-78
2021/09/29 04:43:17;;;;;;;2.03;1.30;;;;;19.10;101149.00;;;;5060053;28;20226;-79
2021/09/29 04:45:46;;;;;;;2.42;1.27;;;;;19.10;101148.00;;;;5069574;28;20207;-78
2021/09/29 04:48:14;;;;;;;2.40;1.38;;;;;19.10;101139.00;;;;5050299;28;20277;-79
2021/09/29 04:50:41;;;;;;;3.17;1.40;;;;;19.10;101148.00;;;;5051350;28;20191;-79
2021/09/29 04:53:10;;;;;;;2.35;1.80;;;;;19.10;101136.00;;;;5051410;28;20207;-78
2021/09/29 04:55:37;;;;;;;3.08;1.30;;;;;19.10;101139.00;;;;5050709;28;20222;-78
2021/09/29 04:58:05;;;;;;;2.50;1.40;;;;;19.10;101142.00;;;;5051117;28;20203;-77
2021/09/29 05:00:33;;;;;;;2.72;1.45;;;;;19.10;101145.00;;;;5049931;28;20199;-78
2021/09/29 05:03:00;;;;;;;1.92;1.15;;;;;19.10;101135.00;;;;5058986;28;20206;-78
2021/09/29 05:05:28;;;;;;;2.10;1.42;;;;;19.10;101137.00;;;;5056993;28;20203;-78
2021/09/29 05:07:58;;;;;;;2.63;1.50;;;;;19.10;101132.00;;;;5068772;28;20198;-78
2021/09/29 05:10:35;;;;;;;2.22;1.10;;;;;19.00;101125.00;;;;5057136;28;20195;-78
2021/09/29 05:13:07;;;;;;;5.10;2.40;;;;;19.10;101123.00;;;;5060141;28;20435;-77
2021/09/29 05:15:35;;;;;;;3.40;1.90;;;;;19.20;101122.00;;;;5055580;28;20200;-77
2021/09/29 05:18:02;;;;;;;2.55;1.27;;;;;19.20;101127.00;;;;5059497;28;20195;-77
2021/09/29 05:20:29;;;;;;;2.97;1.48;;;;;19.20;101121.00;;;;5055589;28;20195;-77
2021/09/29 05:22:56;;;;;;;2.65;1.30;;;;;19.20;101118.00;;;;5069855;28;20195;-77
2021/09/29 05:25:23;;;;;;;1.50;0.95;;;;;19.20;101118.00;;;;5054643;28;20199;-77
2021/09/29 05:27:53;;;;;;;1.38;1.13;;;;;19.20;101115.00;;;;5056616;28;20203;-76
2021/09/29 05:30:20;;;;;;;3.45;2.03;;;;;19.20;101120.00;;;;5056942;28;20617;-77
2021/09/29 05:32:47;;;;;;;3.35;1.48;;;;;19.20;101121.00;;;;5050294;28;20207;-77
2021/09/29 05:35:15;;;;;;;2.05;1.17;;;;;19.20;101115.00;;;;5052545;28;20227;-78
2021/09/29 05:37:42;;;;;;;3.58;1.23;;;;;19.20;101110.00;;;;5050711;28;20207;-77
2021/09/29 05:40:10;;;;;;;2.67;1.70;;;;;19.20;101111.00;;;;5051780;28;20214;-77
2021/09/29 05:42:38;;;;;;;2.45;1.30;;;;;19.20;101112.00;;;;5049547;28;20223;-77
2021/09/29 05:45:08;;;;;;;1.75;1.17;;;;;19.20;101106.00;;;;5068730;28;20659;-78
2021/09/29 05:47:35;;;;;;;2.15;1.48;;;;;19.20;101114.00;;;;5056002;28;20198;-77
2021/09/29 05:50:02;;;;;;;3.47;1.77;;;;;19.20;101115.00;;;;5067756;28;20584;-76
2021/09/29 05:52:30;;;;;;;3.35;1.50;;;;;19.20;101110.00;;;;5062158;28;20188;-78
2021/09/29 05:54:57;;;;;;;4.65;1.48;;;;;19.20;101110.00;;;;5060412;28;20227;-78
2021/09/29 05:57:24;;;;;;;2.13;1.27;;;;;19.20;101107.00;;;;5066961;28;20722;-78
2021/09/29 05:59:51;;;;;;;3.03;1.90;;;;;19.20;101113.00;;;;5068585;28;20202;-77
2021/09/29 06:02:20;;;;;;;2.85;1.15;;;;;19.20;101106.00;;;;5064506;28;20205;-78
2021/09/29 06:04:47;;;;;;;2.58;1.42;;;;;19.20;101095.00;;;;5068912;28;20203;-77
2021/09/29 06:07:17;;;;;;;4.88;1.50;;;;;19.10;101094.00;;;;5063559;28;20206;-77
2021/09/29 06:09:45;;;;;;;2.83;1.17;;;;;19.10;101107.00;;;;5054871;28;20279;-77
2021/09/29 06:12:13;;;;;;;2.55;1.33;;;;;19.10;101104.00;;;;5051068;28;20787;-78
2021/09/29 06:14:43;;;;;;;1.88;1.00;;;;;19.20;101100.00;;;;5049028;28;20246;-79
2021/09/29 06:17:20;;;;;;;1.83;1.25;;;;;19.20;101103.00;;;;5049008;28;20223;-79
2021/09/29 06:19:50;;;;;;;1.90;1.30;;;;;19.20;101103.00;;;;5049146;28;20306;-79
2021/09/29 06:22:18;;;;;;;2.08;1.10;;;;;19.20;101093.00;;;;5049690;28;20222;-79
2021/09/29 06:24:45;;;;;;;2.35;1.30;;;;;19.20;101094.00;;;;5049492;28;20195;-78
2021/09/29 06:27:13;;;;;;;3.13;1.33;;;;;19.20;101096.00;;;;5050036;28;20196;-78
2021/09/29 06:29:40;;;;;;;2.67;1.40;;;;;19.20;101096.00;;;;5062945;28;20199;-78
2021/09/29 06:32:08;;;;;;;2.40;0.90;;;;;19.20;101087.00;;;;5050007;28;20198;-78
2021/09/29 06:34:35;;;;;;;2.58;1.33;;;;;19.20;101106.00;;;;5050134;28;20235;-79
2021/09/29 06:37:04;;;;;;;3.47;1.35;;;;;19.20;101103.00;;;;5064635;28;20336;-79
2021/09/29 06:39:32;;;;;;;1.80;1.00;;;;;19.20;101107.00;;;;5052642;28;20198;-79
2021/09/29 06:41:59;;;;;;;2.15;1.15;;;;;19.20;101110.00;;;;5069555;28;20231;-79
2021/09/29 06:44:28;;;;;;;3.63;1.63;;;;;19.30;101095.00;;;;5069560;28;20191;-76
2021/09/29 06:46:56;;;;;;;2.72;0.98;;;;;19.30;101107.00;;;;5050491;28;20203;-76
2021/09/29 06:49:23;;;;;;;2.20;1.05;;;;;19.30;101103.00;;;;5058089;28;20282;-75
2021/09/29 06:51:50;;;;;;;2.05;1.15;;;;;19.30;101103.00;;;;5048674;28;20195;-73
2021/09/29 06:54:19;;;;;;;1.50;1.08;;;;;19.30;101105.00;;;;5048775;28;20246;-75
2021/09/29 06:56:46;;;;;;;1.52;0.90;;;;;19.30;101104.00;;;;5048343;28;20223;-74
2021/09/29 06:59:13;;;;;;;1.70;1.05;;;;;19.30;101114.00;;;;5061793;28;20593;-75
2021/09/29 07:01:41;;;;;;;2.85;0.95;;;;;19.30;101112.00;;;;5050502;28;20207;-75
2021/09/29 07:04:08;;;;;;;1.83;1.17;;;;;19.30;101113.00;;;;5054323;28;20234;-76
2021/09/29 07:06:35;;;;;;;2.42;1.27;;;;;19.30;101113.00;;;;5050119;28;20745;-76
2021/09/29 07:09:03;;;;;;;1.67;1.00;;;;;19.30;101105.00;;;;5057819;28;20229;-76
2021/09/29 07:11:31;;;;;;;2.33;1.40;;;;;19.30;101108.00;;;;5048380;28;20202;-76
2021/09/29 07:13:58;;;;;;;2.05;1.10;;;;;19.30;101109.00;;;;5048926;28;20223;-76
2021/09/29 07:16:28;;;;;;;4.05;1.25;;;;;19.30;101106.00;;;;5048277;28;20211;-76
2021/09/29 07:19:01;;;;;;;5.65;1.33;;;;;19.30;101103.00;;;;5049190;28;20253;-76
2021/09/29 07:21:28;;;;;;;2.05;1.20;;;;;19.30;101104.00;;;;5048306;28;20245;-76
2021/09/29 07:23:56;;;;;;;1.92;1.20;;;;;19.40;101114.00;;;;5048410;28;20586;-76
2021/09/29 07:26:24;;;;;;;2.53;1.35;;;;;19.40;101116.00;;;;5049577;28;20196;-75
2021/09/29 07:28:52;;;;;;;2.92;1.23;;;;;19.40;101115.00;;;;5048696;28;20752;-75
2021/09/29 07:31:20;;;;;;;1.05;0.93;;;;;19.40;101114.00;;;;5049140;28;20199;-75
2021/09/29 07:33:47;;;;;;;1.90;1.40;;;;;19.40;101115.00;;;;5052494;28;20214;-75
2021/09/29 07:36:14;;;;;;;2.65;1.10;;;;;19.40;101124.00;;;;5054423;28;20581;-75
2021/09/29 07:38:42;;;;;;;4.28;1.20;;;;;19.40;101119.00;;;;5049745;28;20282;-75
2021/09/29 07:41:09;;;;;;;1.48;0.90;;;;;19.40;101125.00;;;;5050362;28;20254;-76
2021/09/29 07:43:37;;;;;;;1.35;0.85;;;;;19.40;101125.00;;;;5053769;28;20220;-75
2021/09/29 07:46:05;;;;;;;1.15;0.65;;;;;19.40;101124.00;;;;5048828;28;20277;-75
2021/09/29 07:48:33;;;;;;;2.63;0.68;;;;;19.40;101122.00;;;;5055957;28;20202;-75
2021/09/29 07:51:01;;;;;;;2.03;1.02;;;;;19.40;101126.00;;;;5048597;28;20211;-75
2021/09/29 07:53:28;;;;;;;1.33;1.02;;;;;19.40;101127.00;;;;5049925;28;20203;-75
2021/09/29 07:55:57;;;;;;;1.75;1.20;;;;;19.40;101135.00;;;;5061837;28;20231;-77
2021/09/29 07:58:25;;;;;;;2.53;1.30;;;;;19.40;101150.00;;;;5056842;28;20195;-74
2021/09/29 08:00:54;;;;;;;1.98;1.05;;;;;19.40;101146.00;;;;5053005;28;20257;-75
2021/09/29 08:03:22;;;;;;;1.65;1.20;;;;;19.40;101154.00;;;;5054649;28;20201;-75
2021/09/29 08:05:52;;;;;;;1.77;1.15;;;;;19.40;101146.00;;;;5054728;28;20204;-76
2021/09/29 08:08:20;;;;;;;1.42;1.08;;;;;19.40;101143.00;;;;5054176;28;20209;-76
2021/09/29 08:10:47;;;;;;;2.00;1.20;;;;;19.40;101141.00;;;;5060601;28;20206;-76
2021/09/29 08:13:14;;;;;;;5.35;4.03;;;;;19.40;101141.00;;;;5057962;28;20198;-76
2021/09/29 08:15:41;;;;;;;3.65;2.95;;;;;19.40;101141.00;;;;5058398;28;20215;-76
2021/09/29 08:18:09;;;;;;;3.00;2.00;;;;;19.40;101148.00;;;;5052587;28;20203;-76
2021/09/29 08:20:38;;;;;;;2.20;1.33;;;;;19.40;101146.00;;;;5049486;28;20207;-76
2021/09/29 08:23:11;;;;;;;1.35;1.13;;;;;19.40;101145.00;;;;5058585;28;20571;-77
2021/09/29 08:31:22;;;;;;;1.80;1.40;;;;;19.40;101145.00;;;;5048248;28;20614;-76
2021/09/29 08:36:40;;;;;;;1.85;1.40;;;;;19.40;101152.00;;;;5051330;28;20340;-75
2021/09/29 08:39:11;;;;;;;1.90;1.67;;;;;19.40;101154.00;;;;5054226;28;20282;-77
2021/09/29 08:41:49;;;;;;;6.05;1.90;;;;;19.40;101154.00;;;;5051143;28;20223;-77
2021/09/29 08:44:21;;;;;;;2.05;1.48;;;;;19.40;101154.00;;;;5055650;28;20203;-77
2021/09/29 08:47:00;;;;;;;2.58;1.70;;;;;19.40;101160.00;;;;5048514;28;20204;-78
2021/09/29 08:49:37;;;;;;;1.92;1.23;;;;;19.30;101162.00;;;;5056629;28;20203;-77
2021/09/29 08:55:13;;;;;;;1.65;1.30;;;;;19.30;101158.00;;;;5054117;28;20310;-77
2021/09/29 09:14:52;;;;;;;2.40;1.27;;;;;19.00;101172.00;;;;5045085;28;20227;-75
2021/09/29 09:17:28;;;;;;;1.15;0.90;;;;;19.00;101175.00;;;;5050928;28;20709;-73
2021/09/29 09:19:56;;;;;;;2.08;1.58;;;;;19.10;101167.00;;;;5057781;28;20422;-74
2021/09/29 09:22:33;;;;;;;1.83;1.58;;;;;18.90;101169.00;;;;5053699;28;20212;-75
2021/09/29 09:25:01;;;;;;;1.45;1.35;;;;;19.00;101173.00;;;;5050912;28;20231;-76
2021/09/29 09:27:39;;;;;;;1.60;1.48;;;;;19.00;101179.00;;;;5068989;28;20206;-76
2021/09/29 09:30:08;;;;;;;1.13;1.02;;;;;19.00;101177.00;;;;5053104;28;20233;-76
2021/09/29 09:32:44;;;;;;;1.08;0.95;;;;;18.90;101182.00;;;;5052810;28;20253;-76
2021/09/29 09:35:13;;;;;;;1.25;1.15;;;;;19.00;101177.00;;;;5062226;28;20223;-76
2021/09/29 09:37:44;;;;;;;1.58;1.40;;;;;19.00;101171.00;;;;5068509;28;20530;-76
2021/09/29 09:40:15;;;;;;;0.60;0.50;;;;;18.90;101170.00;;;;5050793;28;20277;-75
2021/09/29 09:42:44;;;;;;;1.65;1.15;;;;;19.00;101164.00;;;;5050719;28;20235;-76
2021/09/29 09:45:13;;;;;;;1.88;1.00;;;;;18.90;101167.00;;;;5052447;28;20191;-76
2021/09/29 09:47:44;;;;;;;1.00;0.60;;;;;18.90;101174.00;;;;5057375;28;20199;-76
2021/09/29 09:50:12;;;;;;;0.68;0.50;;;;;18.90;101171.00;;;;5067813;28;20646;-76
2021/09/29 09:52:42;;;;;;;0.95;0.77;;;;;18.90;101173.00;;;;5061504;28;20333;-76
2021/09/29 09:55:12;;;;;;;3.50;3.20;;;;;18.90;101183.00;;;;5068675;28;20769;-76
2021/09/29 09:57:42;;;;;;;1.83;1.70;;;;;18.90;101190.00;;;;5052854;28;20682;-76
2021/09/29 10:00:11;;;;;;;1.98;1.48;;;;;18.90;101199.00;;;;5051841;28;20230;-76
2021/09/29 10:02:40;;;;;;;1.77;1.55;;;;;18.90;101203.00;;;;5048883;28;20195;-75
2021/09/29 10:05:08;;;;;;;2.13;0.85;;;;;18.90;101214.00;;;;5050294;28;20211;-76
2021/09/29 10:07:36;;;;;;;2.03;1.10;;;;;18.90;101216.00;;;;5048451;28;20208;-78
2021/09/29 10:10:07;;;;;;;1.23;0.65;;;;;18.90;101227.00;;;;5048942;28;20200;-78
2021/09/29 10:12:48;;;;;;;1.40;0.60;;;;;18.80;101232.00;;;;5054026;28;20661;-78
2021/09/29 10:23:59;;;;;;;1.40;0.50;;;;;18.70;101241.00;;;;5058955;28;20584;-77
2021/09/29 10:26:26;;;;;;;3.03;0.65;;;;;18.70;101231.00;;;;5050028;28;20682;-78
2021/09/29 10:29:05;;;;;;;1.73;0.57;;;;;18.50;101236.00;;;;5051049;28;20210;-78
2021/09/29 10:31:43;;;;;;;1.90;0.70;;;;;18.60;101234.00;;;;5056942;28;20675;-77
2021/09/29 10:34:27;;;;;;;2.40;0.73;;;;;18.50;101241.00;;;;5058386;28;20227;-76
2021/09/29 10:37:13;;;;;;;0.55;0.40;;;;;18.50;101256.00;;;;5051394;28;20215;-76
2021/09/29 10:42:40;;;;;;;0.40;0.30;;;;;18.50;101278.00;;;;5060007;28;20230;-77
2021/09/29 11:28:14;;;;;;;1.35;0.20;;;;;18.40;101260.00;;;;5048398;28;20611;-76
2021/09/29 11:30:46;;;;;;;0.75;0.20;;;;;18.50;101268.00;;;;5047827;28;20254;-76
2021/09/29 11:33:27;;;;;;;0.30;0.22;;;;;18.50;101268.00;;;;5055021;28;20191;-76
2021/09/29 11:36:06;;;;;;;0.40;0.35;;;;;18.60;101275.00;;;;5047078;28;20259;-76
2021/09/29 12:09:34;;;;;;;4.63;4.22;;;;;19.60;101310.00;;;;5066412;28;20618;-77
2021/09/29 12:12:18;;;;;;;23.25;21.15;;;;;19.70;101309.00;;;;5068439;28;20231;-77
2021/09/29 12:14:46;;;;;;;14.95;13.75;;;;;19.80;101304.00;;;;5053029;28;20249;-77
2021/09/29 12:17:19;;;;;;;13.25;11.90;;;;;20.00;101313.00;;;;5060234;28;20246;-78
2021/09/29 12:19:51;;;;;;;14.32;12.98;;;;;20.10;101309.00;;;;5050798;28;20204;-77
2021/09/29 12:22:19;;;;;;;37.45;32.35;;;;;20.10;101313.00;;;;5055995;28;20275;-77
2021/09/29 12:24:50;;;;;;;13.00;11.60;;;;;20.20;101324.00;;;;5052763;28;20210;-76
2021/09/29 12:27:28;;;;;;;6.65;5.55;;;;;20.10;101323.00;;;;5057086;28;20210;-78
2021/09/29 12:29:57;;;;;;;5.15;3.90;;;;;20.20;101324.00;;;;5053682;28;20218;-77
2021/09/29 12:32:44;;;;;;;3.47;2.58;;;;;20.20;101330.00;;;;5063876;28;20194;-76
2021/09/29 12:35:21;;;;;;;3.15;2.42;;;;;20.20;101335.00;;;;5053525;28;20195;-76
2021/09/29 12:38:00;;;;;;;2.50;1.52;;;;;20.10;101350.00;;;;5050281;28;20195;-79
2021/09/29 12:40:31;;;;;;;1.73;1.05;;;;;20.20;101336.00;;;;5051375;28;20198;-77
2021/09/29 12:43:01;;;;;;;1.42;1.10;;;;;20.20;101342.00;;;;5049443;28;20233;-76
2021/09/29 12:45:32;;;;;;;3.50;2.08;;;;;20.20;101342.00;;;;5051223;28;20261;-79
2021/09/29 12:48:00;;;;;;;2.92;2.20;;;;;20.20;101346.00;;;;5051404;28;20326;-80
2021/09/29 12:50:37;;;;;;;3.13;2.17;;;;;20.20;101349.00;;;;5051519;28;20683;-75
2021/09/29 12:53:15;;;;;;;3.75;2.13;;;;;20.20;101346.00;;;;5057229;28;20939;-76
2021/09/29 12:55:47;;;;;;;7.38;6.05;;;;;20.30;101361.00;;;;5059575;28;20277;-79
2021/09/29 12:58:15;;;;;;;5.70;4.45;;;;;20.30;101345.00;;;;5052022;28;20207;-79
2021/09/29 13:00:42;;;;;;;3.70;3.00;;;;;20.40;101360.00;;;;5064018;28;20202;-77
2021/09/29 13:03:09;;;;;;;2.50;1.70;;;;;20.50;101362.00;;;;5061814;28;20202;-77
2021/09/29 13:05:37;;;;;;;3.28;1.73;;;;;20.60;101371.00;;;;5054392;28;20214;-76
2021/09/29 13:08:05;;;;;;;2.42;1.20;;;;;20.70;101370.00;;;;5051210;28;20211;-76
2021/09/29 13:10:32;;;;;;;13.55;7.45;;;;;20.80;101365.00;;;;5062709;28;20203;-80
2021/09/29 13:13:01;;;;;;;22.10;10.18;;;;;21.00;101370.00;;;;5053350;28;20246;-80
2021/09/29 13:15:28;;;;;;;13.40;6.75;;;;;21.40;101371.00;;;;5058068;28;20228;-83
2021/09/29 13:17:57;;;;;;;15.07;6.00;;;;;22.10;101380.00;;;;5053329;28;20207;-76
2021/09/29 13:20:27;;;;;;;13.82;5.15;;;;;23.00;101373.00;;;;5062918;28;20203;-79
2021/09/29 13:22:59;;;;;;;17.52;7.30;;;;;23.80;101394.00;;;;5058633;28;20199;-80
2021/09/29 13:36:36;;;;;;;19.98;9.65;;;;;27.20;101433.00;;;;5036309;28;20736;-76
2021/09/29 13:39:07;;;;;;;6.55;3.33;;;;;27.00;101436.00;;;;5058534;28;20192;-77
2021/09/29 13:41:34;;;;;;;3.13;1.80;;;;;26.70;101449.00;;;;5053945;28;20239;-77
2021/09/29 13:44:03;;;;;;;3.67;0.68;;;;;26.40;101459.00;;;;5054125;28;20219;-76
2021/09/29 13:46:31;;;;;;;5.03;1.27;;;;;26.40;101449.00;;;;5052042;28;21200;-76
2021/09/29 13:49:00;;;;;;;0.80;0.45;;;;;26.70;101454.00;;;;5049805;28;20215;-76
2021/09/29 13:51:29;;;;;;;3.28;0.95;;;;;27.20;101456.00;;;;5062258;28;20214;-76
2021/09/29 13:53:58;;;;;;;3.25;0.95;;;;;27.80;101458.00;;;;5055202;28;20209;-77
2021/09/29 13:56:30;;;;;;;2.50;0.80;;;;;28.40;101457.00;;;;5053815;28;20310;-77
2021/09/29 13:59:06;;;;;;;2.80;0.45;;;;;29.00;101471.00;;;;5055518;28;20203;-78
2021/09/29 14:02:01;;;;;;;1.85;0.60;;;;;29.60;101477.00;;;;5054408;28;20195;-77
2021/09/29 14:29:22;;;;;;;0.68;0.30;;;;;28.10;101535.00;;;;5059217;28;20210;-77
2021/09/29 14:32:02;;;;;;;1.45;0.30;;;;;27.60;101543.00;;;;5057248;28;20241;-77
2021/09/29 14:34:31;;;;;;;1.05;0.60;;;;;27.10;101546.00;;;;5056147;28;20227;-77
2021/09/29 14:36:58;;;;;;;0.80;0.50;;;;;26.70;101542.00;;;;5060779;28;20268;-77
2021/09/29 14:39:26;;;;;;;4.15;0.35;;;;;26.30;101547.00;;;;5053867;28;20191;-77
2021/09/29 14:41:53;;;;;;;1.35;0.40;;;;;25.90;101544.00;;;;5049477;28;20235;-76
2021/09/29 14:44:21;;;;;;;2.38;0.32;;;;;25.60;101549.00;;;;5055065;28;20281;-76
2021/09/29 14:46:48;;;;;;;1.95;0.55;;;;;25.20;101551.00;;;;5065017;28;20213;-77
2021/09/29 14:49:15;;;;;;;1.52;0.28;;;;;24.90;101559.00;;;;5054800;28;20203;-77